createdAt,value
2018-09-03T00:01:11.598Z,100108.20
2018-09-03T00:03:39.263Z,100100.70
2018-09-03T00:06:07.013Z,100105.27
2018-09-03T00:08:34.696Z,100102.64
2018-09-03T00:11:02.772Z,100099.43
2018-09-03T00:13:30.791Z,100100.64
2018-09-03T00:15:58.442Z,100092.80
2018-09-03T00:18:26.106Z,100092.19
2018-09-03T00:20:53.890Z,100094.82
2018-09-03T00:23:21.631Z,100081.90
2018-09-03T00:25:49.709Z,100078.95
2018-09-03T00:28:17.408Z,100078.34
2018-09-03T00:30:45.170Z,100090.38
2018-09-03T00:33:18.528Z,100080.54
2018-09-03T00:35:52.008Z,100082.56
2018-09-03T00:38:25.797Z,100084.89
2018-09-03T00:40:59.342Z,100089.77
2018-09-03T00:43:32.913Z,100091.48
2018-09-03T00:48:41.584Z,100102.32
2018-09-03T00:51:09.311Z,100102.78
2018-09-03T00:53:37.112Z,100099.58
2018-09-03T00:56:04.939Z,100096.64
2018-09-03T00:58:32.734Z,100093.19
2018-09-03T01:01:00.827Z,100097.95
2018-09-03T01:03:28.626Z,100101.52
2018-09-03T01:05:56.334Z,100099.83
2018-09-03T01:08:24.104Z,100096.58
2018-09-03T01:10:51.779Z,100106.37
2018-09-03T01:13:19.468Z,100109.06
2018-09-03T01:15:47.155Z,100111.08
2018-09-03T01:18:14.919Z,100109.45
2018-09-03T01:20:42.606Z,100107.83
2018-09-03T01:23:10.369Z,100119.69
2018-09-03T01:25:38.084Z,100124.56
2018-09-03T01:28:05.801Z,100124.06
2018-09-03T01:30:33.636Z,100123.25
2018-09-03T01:33:01.424Z,100124.06
2018-09-03T01:35:29.533Z,100121.37
2018-09-03T01:37:57.573Z,100131.97
2018-09-03T01:40:25.391Z,100131.46
2018-09-03T01:42:53.099Z,100134.91
2018-09-03T01:45:20.810Z,100134.04
2018-09-03T01:47:48.578Z,100128.57
2018-09-03T01:50:16.306Z,100130.31
2018-09-03T01:52:44.135Z,100130.00
2018-09-03T01:55:11.922Z,100131.12
2018-09-03T01:57:39.634Z,100133.25
2018-09-03T02:00:07.568Z,100133.33
2018-09-03T02:02:35.397Z,100134.65
2018-09-03T02:05:03.135Z,100134.70
2018-09-03T02:07:31.175Z,100128.63
2018-09-03T02:09:58.901Z,100127.45
2018-09-03T02:12:26.602Z,100134.34
2018-09-03T02:14:54.372Z,100124.16
2018-09-03T02:17:22.143Z,100123.48
2018-09-03T02:19:49.865Z,100119.08
2018-09-03T02:22:17.702Z,100116.84
2018-09-03T02:24:45.475Z,100115.21
2018-09-03T02:27:13.379Z,100110.92
2018-09-03T02:29:41.089Z,100102.20
2018-09-03T02:32:08.910Z,100092.41
2018-09-03T02:34:37.057Z,100090.17
2018-09-03T02:37:05.162Z,100087.02
2018-09-03T02:39:39.950Z,100090.78
2018-09-03T02:42:08.055Z,100084.73
2018-09-03T02:44:35.914Z,100076.19
2018-09-03T02:47:04.708Z,100071.62
2018-09-03T02:49:32.422Z,100077.50
2018-09-03T02:52:00.259Z,100071.52
2018-09-03T02:54:27.982Z,100061.69
2018-09-03T02:56:55.770Z,100064.72
2018-09-03T02:59:23.490Z,100063.17
2018-09-03T03:01:51.326Z,100062.94
2018-09-03T03:04:34.027Z,100064.36
2018-09-03T03:07:01.851Z,100061.31
2018-09-03T03:09:29.506Z,100062.42
2018-09-03T03:11:57.256Z,100067.13
2018-09-03T03:14:25.064Z,100063.17
2018-09-03T03:16:52.940Z,100060.13
2018-09-03T03:19:20.683Z,100050.59
2018-09-03T03:21:48.490Z,100054.15
2018-09-03T03:24:16.223Z,100057.77
2018-09-03T03:26:43.993Z,100042.18
2018-09-03T03:29:11.797Z,100045.33
2018-09-03T03:31:39.486Z,100049.59
2018-09-03T03:34:07.311Z,100044.41
2018-09-03T03:36:35.027Z,100045.62
2018-09-03T03:39:03.607Z,100040.19
2018-09-03T03:41:31.286Z,100039.84
2018-09-03T03:43:58.963Z,100041.09
2018-09-03T03:46:26.691Z,100040.66
2018-09-03T03:48:54.466Z,100038.56
2018-09-03T03:51:22.172Z,100034.00
2018-09-03T03:53:49.963Z,100033.52
2018-09-03T03:56:17.699Z,100033.93
2018-09-03T03:58:45.544Z,100029.84
2018-09-03T04:01:13.227Z,100024.05
2018-09-03T04:03:41.078Z,100023.25
2018-09-03T04:06:08.970Z,100025.20
2018-09-03T04:08:36.785Z,100023.07
2018-09-03T04:11:04.995Z,100018.23
2018-09-03T04:13:32.769Z,100024.42
2018-09-03T04:16:07.421Z,100023.94
2018-09-03T04:18:35.189Z,100022.70
2018-09-03T04:21:02.914Z,100020.44
2018-09-03T04:23:30.594Z,100020.64
2018-09-03T04:25:58.431Z,100017.19
2018-09-03T04:28:26.139Z,100019.12
2018-09-03T04:30:53.909Z,100022.59
2018-09-03T04:33:48.945Z,100028.78
2018-09-03T04:36:18.183Z,100028.55
2018-09-03T04:38:45.920Z,100030.48
2018-09-03T04:41:20.287Z,100029.97
2018-09-03T04:43:47.991Z,100023.98
2018-09-03T04:46:15.664Z,100030.58
2018-09-03T04:48:44.193Z,100028.48
2018-09-03T04:51:11.891Z,100021.45
2018-09-03T04:53:39.578Z,100021.98
2018-09-03T04:56:07.347Z,100024.12
2018-09-03T04:58:35.018Z,100032.30
2018-09-03T05:01:02.728Z,100025.70
2018-09-03T05:03:30.449Z,100030.10
2018-09-03T05:06:01.632Z,100028.45
2018-09-03T05:08:29.790Z,100029.12
2018-09-03T05:10:57.486Z,100037.55
2018-09-03T05:13:25.181Z,100039.71
2018-09-03T05:15:52.875Z,100034.23
2018-09-03T05:18:20.609Z,100038.19
2018-09-03T05:20:48.358Z,100036.06
2018-09-03T05:23:16.114Z,100038.90
2018-09-03T05:25:43.798Z,100035.28
2018-09-03T05:28:11.555Z,100035.08
2018-09-03T05:30:39.299Z,100030.10
2018-09-03T05:33:07.064Z,100034.16
2018-09-03T05:35:34.807Z,100029.39
2018-09-03T05:38:02.679Z,100026.25
2018-09-03T05:40:30.481Z,100021.30
2018-09-03T05:42:58.381Z,100016.94
2018-09-03T05:45:26.050Z,100021.66
2018-09-03T05:47:53.783Z,100020.64
2018-09-03T05:50:21.811Z,100024.86
2018-09-03T05:52:49.472Z,100023.56
2018-09-03T05:55:17.219Z,100018.08
2018-09-03T05:57:44.916Z,100020.25
2018-09-03T06:00:12.666Z,100032.31
2018-09-03T06:02:40.663Z,100031.95
2018-09-03T06:05:08.351Z,100038.70
2018-09-03T06:07:40.228Z,100046.41
2018-09-03T06:10:08.194Z,100055.25
2018-09-03T06:12:42.841Z,100052.10
2018-09-03T06:15:10.544Z,100047.26
2018-09-03T06:17:38.660Z,100041.01
2018-09-03T06:20:06.762Z,100044.37
2018-09-03T06:22:34.479Z,100044.69
2018-09-03T06:25:02.664Z,100047.34
2018-09-03T06:27:30.370Z,100043.64
2018-09-03T06:29:58.106Z,100045.06
2018-09-03T06:32:25.865Z,100042.12
2018-09-03T06:34:53.641Z,100044.36
2018-09-03T06:37:21.391Z,100044.95
2018-09-03T06:39:49.111Z,100053.70
2018-09-03T06:42:16.826Z,100060.23
2018-09-03T06:44:45.624Z,100061.64
2018-09-03T06:47:13.664Z,100059.72
2018-09-03T06:49:41.587Z,100060.92
2018-09-03T06:52:09.331Z,100059.11
2018-09-03T06:54:37.062Z,100058.79
2018-09-03T06:57:05.075Z,100053.94
2018-09-03T06:59:32.824Z,100059.22
2018-09-03T07:02:00.763Z,100057.69
2018-09-03T07:04:28.571Z,100057.59
2018-09-03T07:06:56.352Z,100052.36
2018-09-03T07:09:24.039Z,100052.58
2018-09-03T07:11:51.832Z,100047.97
2018-09-03T07:14:19.552Z,100047.03
2018-09-03T07:16:47.645Z,100043.86
2018-09-03T07:19:15.430Z,100047.80
2018-09-03T07:21:43.169Z,100045.66
2018-09-03T07:24:10.847Z,100046.75
2018-09-03T07:26:38.580Z,100053.27
2018-09-03T07:29:06.351Z,100048.02
2018-09-03T07:31:34.032Z,100053.28
2018-09-03T07:34:05.138Z,100052.61
2018-09-03T07:36:32.897Z,100050.84
2018-09-03T07:39:00.784Z,100048.98
2018-09-03T07:41:28.511Z,100048.95
2018-09-03T07:43:56.229Z,100050.97
2018-09-03T07:46:23.973Z,100051.78
2018-09-03T07:48:51.898Z,100052.37
2018-09-03T07:51:19.587Z,100054.58
2018-09-03T07:53:47.584Z,100049.75
2018-09-03T07:56:15.274Z,100048.51
2018-09-03T07:58:43.045Z,100050.86
2018-09-03T08:01:11.053Z,100045.67
2018-09-03T08:03:38.742Z,100044.41
2018-09-03T08:06:06.667Z,100045.10
2018-09-03T08:08:34.355Z,100040.73
2018-09-03T08:11:02.178Z,100040.50
2018-09-03T08:13:38.130Z,100049.03
2018-09-03T08:16:06.063Z,100053.09
2018-09-03T08:18:33.874Z,100048.45
2018-09-03T08:21:01.591Z,100047.75
2018-09-03T08:23:29.361Z,100046.81
2018-09-03T08:25:57.126Z,100044.29
2018-09-03T08:28:24.851Z,100049.95
2018-09-03T08:30:52.694Z,100038.06
2018-09-03T08:33:20.390Z,100039.61
2018-09-03T08:35:48.109Z,100044.91
2018-09-03T08:38:15.855Z,100039.97
2018-09-03T08:40:43.682Z,100039.31
2018-09-03T08:43:11.557Z,100042.09
2018-09-03T08:45:42.493Z,100042.09
2018-09-03T08:48:10.319Z,100036.94
2018-09-03T08:50:38.331Z,100035.11
2018-09-03T08:53:06.304Z,100037.83
2018-09-03T08:55:34.086Z,100027.92
2018-09-03T08:58:02.112Z,100025.38
2018-09-03T09:00:29.802Z,100029.12
2018-09-03T09:02:57.571Z,100021.76
2018-09-03T09:05:25.399Z,100026.09
2018-09-03T09:07:53.259Z,100022.91
2018-09-03T09:10:21.148Z,100025.39
2018-09-03T09:12:48.967Z,100026.92
2018-09-03T09:15:16.938Z,100027.90
2018-09-03T09:17:44.728Z,100026.36
2018-09-03T09:20:12.406Z,100019.28
2018-09-03T09:22:40.211Z,100018.45
2018-09-03T09:25:08.022Z,100016.08
2018-09-03T09:27:35.674Z,100017.74
2018-09-03T09:30:04.714Z,100008.77
2018-09-03T09:32:32.402Z,100004.20
2018-09-03T09:35:00.480Z,100007.59
2018-09-03T09:37:28.155Z,100003.72
2018-09-03T09:39:55.908Z,99998.95
2018-09-03T09:42:23.762Z,99993.09
2018-09-03T09:44:51.767Z,99995.77
2018-09-03T09:47:19.984Z,99997.88
2018-09-03T09:49:47.678Z,99996.27
2018-09-03T09:52:15.475Z,99997.34
2018-09-03T09:54:43.333Z,99990.11
2018-09-03T09:57:11.039Z,99990.34
2018-09-03T09:59:39.342Z,99995.12
2018-09-03T10:02:07.221Z,99997.69
2018-09-03T10:04:34.904Z,99997.42
2018-09-03T10:07:02.707Z,99998.05
2018-09-03T10:09:30.415Z,99995.53
2018-09-03T10:12:01.665Z,99998.37
2018-09-03T10:14:29.507Z,99994.13
2018-09-03T10:16:57.229Z,99988.28
2018-09-03T10:19:25.007Z,99987.45
2018-09-03T10:21:52.747Z,99986.51
2018-09-03T10:24:20.422Z,99989.56
2018-09-03T10:26:48.193Z,99982.89
2018-09-03T10:29:15.870Z,99984.40
2018-09-03T10:31:43.651Z,99981.70
2018-09-03T10:34:11.346Z,99980.17
2018-09-03T10:36:39.223Z,99984.17
2018-09-03T10:39:07.459Z,99978.37
2018-09-03T10:41:35.492Z,99978.23
2018-09-03T10:44:03.291Z,99974.75
2018-09-03T10:46:31.059Z,99972.28
2018-09-03T10:48:58.767Z,99970.70
2018-09-03T10:51:26.527Z,99973.97
2018-09-03T10:53:54.342Z,99970.95
2018-09-03T10:56:22.191Z,99973.89
2018-09-03T10:58:49.955Z,99969.71
2018-09-03T11:03:57.600Z,99967.42
2018-09-03T11:06:25.276Z,99967.19
2018-09-03T11:08:53.135Z,99969.69
2018-09-03T11:11:21.055Z,99963.81
2018-09-03T11:13:48.883Z,99958.73
2018-09-03T11:16:16.689Z,99962.95
2018-09-03T11:18:44.438Z,99950.45
2018-09-03T11:21:13.113Z,99954.81
2018-09-03T11:23:40.706Z,99951.02
2018-09-03T11:26:08.435Z,99946.73
2018-09-03T11:28:36.181Z,99949.37
2018-09-03T11:31:07.659Z,99945.37
2018-09-03T11:33:35.343Z,99948.06
2018-09-03T11:36:09.237Z,99947.92
2018-09-03T11:38:37.055Z,99952.07
2018-09-03T11:41:04.739Z,99948.34
2018-09-03T11:43:32.409Z,99955.67
2018-09-03T11:46:00.423Z,99951.66
2018-09-03T11:48:28.125Z,99948.14
2018-09-03T11:50:55.910Z,99947.09
2018-09-03T11:53:23.597Z,99946.41
2018-09-03T11:55:51.354Z,99954.41
2018-09-03T11:58:19.098Z,99960.27
2018-09-03T12:00:46.940Z,99966.78
2018-09-03T12:03:21.151Z,99965.88
2018-09-03T12:05:48.898Z,99969.69
2018-09-03T12:08:16.591Z,99969.91
2018-09-03T12:10:44.612Z,99967.19
2018-09-03T12:13:12.302Z,99966.06
2018-09-03T12:15:43.190Z,99961.67
2018-09-03T12:18:11.272Z,99960.23
2018-09-03T12:20:38.932Z,99955.55
2018-09-03T12:23:06.619Z,99965.19
2018-09-03T12:25:34.294Z,99967.86
2018-09-03T12:28:02.293Z,99960.38
2018-09-03T12:30:30.000Z,99965.88
2018-09-03T12:32:58.502Z,99964.88
2018-09-03T12:35:26.219Z,99963.58
2018-09-03T12:37:54.087Z,99959.72
2018-09-03T12:40:21.802Z,99956.27
2018-09-03T12:42:49.589Z,99960.67
2018-09-03T12:45:21.300Z,99947.66
2018-09-03T12:47:49.112Z,99950.38
2018-09-03T12:50:16.863Z,99951.98
2018-09-03T12:52:44.783Z,99945.45
2018-09-03T12:55:12.598Z,99945.31
2018-09-03T12:57:40.263Z,99942.69
2018-09-03T13:00:09.739Z,99946.92
2018-09-03T13:02:39.413Z,99948.77
2018-09-03T13:05:05.235Z,99942.91
2018-09-03T13:07:32.975Z,99941.45
2018-09-03T13:10:00.703Z,99946.29
2018-09-03T13:12:28.452Z,99943.62
2018-09-03T13:14:56.135Z,99944.30
2018-09-03T13:17:23.797Z,99947.02
2018-09-03T13:19:51.499Z,99941.04
2018-09-03T13:22:19.362Z,99939.22
2018-09-03T13:24:47.220Z,99943.88
2018-09-03T13:27:17.139Z,99948.09
2018-09-03T13:29:44.955Z,99945.31
2018-09-03T13:32:12.662Z,99942.72
2018-09-03T13:34:44.726Z,99940.27
2018-09-03T13:37:12.423Z,99936.27
2018-09-03T13:39:40.211Z,99937.67
2018-09-03T13:42:07.981Z,99936.80
2018-09-03T13:44:35.670Z,99931.66
2018-09-03T13:47:03.400Z,99924.50
2018-09-03T13:49:31.152Z,99928.61
2018-09-03T13:51:58.980Z,99931.34
2018-09-03T13:54:26.683Z,99931.73
2018-09-03T13:56:54.503Z,99932.28
2018-09-03T13:59:22.488Z,99934.13
2018-09-03T14:01:50.827Z,99928.25
2018-09-03T14:04:18.746Z,99933.78
2018-09-03T14:06:46.502Z,99935.55
2018-09-03T14:09:14.207Z,99929.23
2018-09-03T14:11:42.062Z,99932.91
2018-09-03T14:14:10.127Z,99929.11
2018-09-03T14:16:37.875Z,99934.32
2018-09-03T14:19:05.868Z,99941.92
2018-09-03T14:21:33.581Z,99937.87
2018-09-03T14:24:01.387Z,99931.45
2018-09-03T14:26:29.138Z,99931.82
2018-09-03T14:28:56.806Z,99928.65
2018-09-03T14:31:24.575Z,99924.78
2018-09-03T14:33:52.512Z,99923.72
2018-09-03T14:36:20.316Z,99911.05
2018-09-03T14:38:48.027Z,99901.16
2018-09-03T14:41:15.770Z,99905.59
2018-09-03T14:43:44.378Z,99903.75
2018-09-03T14:46:12.291Z,99890.05
2018-09-03T14:48:40.263Z,99889.38
2018-09-03T14:51:12.006Z,99888.41
2018-09-03T14:53:45.415Z,99891.86
2018-09-03T14:56:13.207Z,99889.80
2018-09-03T14:58:41.063Z,99900.89
2018-09-03T15:01:08.939Z,99891.92
2018-09-03T15:03:37.245Z,99898.53
2018-09-03T15:06:05.394Z,99892.39
2018-09-03T15:08:33.277Z,99904.55
2018-09-03T15:11:01.217Z,99894.95
2018-09-03T15:13:28.884Z,99896.02
2018-09-03T15:15:56.932Z,99899.01
2018-09-03T15:18:24.651Z,99907.81
2018-09-03T15:20:52.359Z,99904.42
2018-09-03T15:23:20.195Z,99906.35
2018-09-03T15:25:47.929Z,99894.90
2018-09-03T15:28:15.719Z,99892.19
2018-09-03T15:30:43.395Z,99898.75
2018-09-03T15:33:11.071Z,99896.08
2018-09-03T15:35:39.075Z,99896.22
2018-09-03T15:38:06.982Z,99894.13
2018-09-03T15:40:34.646Z,99892.73
2018-09-03T15:43:02.705Z,99894.81
2018-09-03T15:45:30.388Z,99887.78
2018-09-03T15:47:58.242Z,99897.25
2018-09-03T15:50:26.043Z,99893.08
2018-09-03T15:52:54.019Z,99890.55
2018-09-03T15:55:21.829Z,99893.86
2018-09-03T15:57:50.245Z,99893.06
2018-09-03T16:00:17.976Z,99881.66
2018-09-03T16:02:45.768Z,99881.77
2018-09-03T16:05:13.454Z,99891.53
2018-09-03T16:07:41.182Z,99880.77
2018-09-03T16:10:08.998Z,99885.64
2018-09-03T16:12:36.843Z,99882.30
2018-09-03T16:15:05.040Z,99881.23
2018-09-03T16:17:32.759Z,99885.25
2018-09-03T16:20:00.665Z,99890.96
2018-09-03T16:22:28.411Z,99893.47
2018-09-03T16:24:56.257Z,99895.16
2018-09-03T16:27:24.292Z,99894.64
2018-09-03T16:29:51.972Z,99892.86
2018-09-03T16:32:19.687Z,99893.56
2018-09-03T16:34:47.391Z,99892.96
2018-09-03T16:37:15.088Z,99892.04
2018-09-03T16:39:42.784Z,99892.67
2018-09-03T16:42:10.486Z,99892.55
2018-09-03T16:44:38.235Z,99895.52
2018-09-03T16:47:06.576Z,99894.71
2018-09-03T16:49:34.266Z,99891.77
2018-09-03T16:52:02.130Z,99894.91
2018-09-03T16:54:33.636Z,99892.88
2018-09-03T16:57:01.414Z,99892.53
2018-09-03T16:59:29.212Z,99895.06
2018-09-03T17:01:57.507Z,99890.22
2018-09-03T17:04:25.574Z,99886.64
2018-09-03T17:06:53.382Z,99895.72
2018-09-03T17:09:21.415Z,99888.39
2018-09-03T17:11:49.130Z,99889.89
2018-09-03T17:14:16.946Z,99890.77
2018-09-03T17:16:44.627Z,99889.76
2018-09-03T17:19:12.624Z,99891.92
2018-09-03T17:21:40.370Z,99889.14
2018-09-03T17:24:08.398Z,99889.64
2018-09-03T17:26:36.227Z,99886.63
2018-09-03T17:29:04.133Z,99884.03
2018-09-03T17:31:32.219Z,99889.02
2018-09-03T17:33:59.891Z,99893.13
2018-09-03T17:36:27.728Z,99898.56
2018-09-03T17:38:55.538Z,99898.56
2018-09-03T17:41:23.351Z,99901.97
2018-09-03T17:43:51.153Z,99898.46
2018-09-03T17:46:18.987Z,99905.68
2018-09-03T17:48:46.775Z,99895.67
2018-09-03T17:51:14.540Z,99901.11
2018-09-03T17:53:51.822Z,99899.64
2018-09-03T17:56:23.641Z,99907.43
2018-09-03T17:58:52.149Z,99902.00
2018-09-03T18:01:20.251Z,99910.94
2018-09-03T18:03:48.032Z,99910.13
2018-09-03T18:06:15.917Z,99901.54
2018-09-03T18:08:43.715Z,99907.00
2018-09-03T18:11:11.798Z,99909.84
2018-09-03T18:13:39.528Z,99910.14
2018-09-03T18:16:07.202Z,99915.03
2018-09-03T18:18:34.918Z,99915.36
2018-09-03T18:21:02.766Z,99923.70
2018-09-03T18:23:30.821Z,99922.78
2018-09-03T18:25:58.519Z,99924.75
2018-09-03T18:28:26.206Z,99923.26
2018-09-03T18:30:53.986Z,99926.14
2018-09-03T18:33:21.714Z,99923.84
2018-09-03T18:35:49.560Z,99932.44
2018-09-03T18:38:17.532Z,99936.53
2018-09-03T18:40:45.229Z,99939.58
2018-09-03T18:43:13.204Z,99944.77
2018-09-03T18:45:40.925Z,99942.34
2018-09-03T18:48:08.680Z,99943.73
2018-09-03T18:50:36.562Z,99946.55
2018-09-03T18:53:04.371Z,99952.33
2018-09-03T18:55:32.614Z,99951.73
2018-09-03T18:58:00.350Z,99948.20
2018-09-03T19:00:28.225Z,99950.29
2018-09-03T19:02:55.883Z,99952.57
2018-09-03T19:05:23.582Z,99952.23
2018-09-03T19:07:51.438Z,99956.88
2018-09-03T19:10:19.226Z,99959.77
2018-09-03T19:12:46.914Z,99956.74
2018-09-03T19:15:15.702Z,99960.09
2018-09-03T19:17:43.431Z,99951.70
2018-09-03T19:20:11.275Z,99951.27
2018-09-03T19:22:39.017Z,99952.44
2018-09-03T19:25:06.775Z,99953.91
2018-09-03T19:27:34.498Z,99953.48
2018-09-03T19:30:02.411Z,99960.70
2018-09-03T19:32:30.183Z,99951.82
2018-09-03T19:34:57.937Z,99954.23
2018-09-03T19:37:25.679Z,99960.61
2018-09-03T19:39:57.161Z,99962.18
2018-09-03T19:42:24.932Z,99962.09
2018-09-03T19:44:52.902Z,99963.58
2018-09-03T19:47:20.626Z,99966.06
2018-09-03T19:49:48.415Z,99962.16
2018-09-03T19:52:16.199Z,99960.38
2018-09-03T19:54:45.111Z,99961.34
2018-09-03T19:57:12.814Z,99963.55
2018-09-03T19:59:40.570Z,99968.45
2018-09-03T20:02:08.877Z,99958.06
2018-09-03T20:04:37.670Z,99958.41
2018-09-03T20:07:05.462Z,99953.23
2018-09-03T20:09:33.156Z,99960.02
2018-09-03T20:12:00.976Z,99965.22
2018-09-03T20:14:29.067Z,99960.59
2018-09-03T20:16:57.732Z,99959.34
2018-09-03T20:19:25.410Z,99963.73
2018-09-03T20:21:53.138Z,99960.43
2018-09-03T20:24:21.115Z,99957.91
2018-09-03T20:26:48.851Z,99963.86
2018-09-03T20:29:16.566Z,99959.38
2018-09-03T20:31:44.571Z,99952.66
2018-09-03T20:34:12.268Z,99956.55
2018-09-03T20:36:39.950Z,99950.96
2018-09-03T20:39:07.702Z,99943.95
2018-09-03T20:41:35.665Z,99944.97
2018-09-03T20:44:03.522Z,99944.75
2018-09-03T20:46:31.686Z,99940.02
2018-09-03T20:49:00.062Z,99953.70
2018-09-03T20:51:27.845Z,99950.23
2018-09-03T20:53:55.611Z,99951.09
2018-09-03T20:56:23.363Z,99953.73
2018-09-03T20:58:51.293Z,99954.95
2018-09-03T21:01:19.328Z,99955.65
2018-09-03T21:03:47.096Z,99960.76
2018-09-03T21:06:18.303Z,99954.25
2018-09-03T21:08:46.034Z,99956.23
2018-09-03T21:11:13.774Z,99951.56
2018-09-03T21:13:41.469Z,99952.62
2018-09-03T21:16:09.150Z,99954.27
2018-09-03T21:18:36.868Z,99954.89
2018-09-03T21:21:04.926Z,99956.02
2018-09-03T21:23:32.621Z,99956.13
2018-09-03T21:26:00.420Z,99966.08
2018-09-03T21:28:28.149Z,99965.67
2018-09-03T21:30:57.038Z,99966.11
2018-09-03T21:33:24.715Z,99964.88
2018-09-03T21:35:52.477Z,99966.80
2018-09-03T21:38:20.528Z,99964.59
2018-09-03T21:40:48.263Z,99967.15
2018-09-03T21:43:16.023Z,99965.31
2018-09-03T21:45:44.088Z,99966.11
2018-09-03T21:48:11.771Z,99966.80
2018-09-03T21:50:39.541Z,99968.98
2018-09-03T21:53:07.262Z,99966.80
2018-09-03T21:55:35.030Z,99968.66
2018-09-03T21:58:02.774Z,99968.36
2018-09-03T22:00:30.531Z,99967.55
2018-09-03T22:02:58.287Z,99969.00
2018-09-03T22:05:26.101Z,99956.91
2018-09-03T22:07:53.880Z,99958.61
2018-09-03T22:10:21.810Z,99967.48
2018-09-03T22:12:49.525Z,99961.48
2018-09-03T22:15:17.407Z,99956.63
2018-09-03T22:17:45.383Z,99965.77
2018-09-03T22:20:13.119Z,99960.18
2018-09-03T22:22:40.844Z,99962.53
2018-09-03T22:25:08.579Z,99962.73
2018-09-03T22:27:36.272Z,99963.44
2018-09-03T22:30:04.676Z,99967.91
2018-09-03T22:32:32.360Z,99962.23
2018-09-03T22:35:00.291Z,99964.97
2018-09-03T22:37:28.038Z,99960.20
2018-09-03T22:39:55.707Z,99956.37
2018-09-03T22:42:25.994Z,99961.14
2018-09-03T22:44:55.228Z,99960.00
2018-09-03T22:47:22.987Z,99953.91
2018-09-03T22:49:50.678Z,99956.88
2018-09-03T22:52:18.382Z,99956.24
2018-09-03T22:54:49.742Z,99951.38
2018-09-03T22:57:17.602Z,99948.75
2018-09-03T22:59:45.276Z,99947.81
2018-09-03T23:02:13.182Z,99948.83
2018-09-03T23:04:40.887Z,99951.98
2018-09-03T23:07:08.583Z,99953.41
2018-09-03T23:09:36.326Z,99952.50
2018-09-03T23:12:04.059Z,99953.32
2018-09-03T23:14:31.774Z,99947.53
2018-09-03T23:16:59.617Z,99952.00
2018-09-03T23:19:27.414Z,99944.68
2018-09-03T23:21:55.127Z,99948.45
2018-09-03T23:24:22.894Z,99948.64
2018-09-03T23:26:50.599Z,99944.30
2018-09-03T23:29:18.640Z,99941.14
2018-09-03T23:31:46.313Z,99940.23
2018-09-03T23:34:14.065Z,99933.64
2018-09-03T23:36:41.797Z,99935.86
2018-09-03T23:39:09.502Z,99941.56
2018-09-03T23:41:37.175Z,99941.14
2018-09-03T23:44:11.757Z,99936.46
2018-09-03T23:46:39.623Z,99937.69
2018-09-03T23:49:07.353Z,99931.69
2018-09-03T23:51:35.043Z,99930.49
2018-09-03T23:54:02.846Z,99929.05
2018-09-03T23:56:30.510Z,99932.59
2018-09-03T23:58:58.200Z,99931.57
